sensor_id;sensor_type;location;lat;lon;timestamp;P1;durP1;ratioP1;P2;durP2;ratioP2
42006;SDS011;27696;42.704;23.304;2022-12-18T00:02:10;9.52;;;8.00;;
42006;SDS011;27696;42.704;23.304;2022-12-18T00:04:36;10.68;;;8.52;;
42006;SDS011;27696;42.704;23.304;2022-12-18T00:07:01;9.50;;;8.50;;
42006;SDS011;27696;42.704;23.304;2022-12-18T00:09:28;9.95;;;8.75;;
42006;SDS011;27696;42.704;23.304;2022-12-18T00:11:53;11.00;;;9.35;;
42006;SDS011;27696;42.704;23.304;2022-12-18T00:14:18;10.60;;;9.50;;
42006;SDS011;27696;42.704;23.304;2022-12-18T00:16:44;11.52;;;9.38;;
42006;SDS011;27696;42.704;23.304;2022-12-18T00:19:11;10.48;;;9.10;;
42006;SDS011;27696;42.704;23.304;2022-12-18T00:21:40;12.73;;;10.00;;
42006;SDS011;27696;42.704;23.304;2022-12-18T00:24:05;10.32;;;9.20;;
42006;SDS011;27696;42.704;23.304;2022-12-18T00:26:32;10.38;;;9.13;;
42006;SDS011;27696;42.704;23.304;2022-12-18T00:28:58;11.05;;;9.32;;
42006;SDS011;27696;42.704;23.304;2022-12-18T00:31:35;13.30;;;10.52;;
42006;SDS011;27696;42.704;23.304;2022-12-18T00:34:02;12.05;;;9.88;;
42006;SDS011;27696;42.704;23.304;2022-12-18T00:36:29;13.48;;;9.75;;
42006;SDS011;27696;42.704;23.304;2022-12-18T00:38:59;13.68;;;10.38;;
42006;SDS011;27696;42.704;23.304;2022-12-18T00:41:26;12.50;;;9.95;;
42006;SDS011;27696;42.704;23.304;2022-12-18T00:44:12;13.07;;;10.10;;
42006;SDS011;27696;42.704;23.304;2022-12-18T00:46:40;10.57;;;8.80;;
42006;SDS011;27696;42.704;23.304;2022-12-18T00:49:06;11.13;;;8.98;;
42006;SDS011;27696;42.704;23.304;2022-12-18T00:51:31;11.30;;;9.60;;
42006;SDS011;27696;42.704;23.304;2022-12-18T00:53:57;14.43;;;10.30;;
42006;SDS011;27696;42.704;23.304;2022-12-18T00:56:23;10.55;;;9.10;;
42006;SDS011;27696;42.704;23.304;2022-12-18T00:58:48;10.90;;;8.95;;
42006;SDS011;27696;42.704;23.304;2022-12-18T01:01:14;11.27;;;9.13;;
42006;SDS011;27696;42.704;23.304;2022-12-18T01:03:40;11.13;;;9.85;;
42006;SDS011;27696;42.704;23.304;2022-12-18T01:06:09;11.65;;;10.20;;
42006;SDS011;27696;42.704;23.304;2022-12-18T01:08:36;14.27;;;10.55;;
42006;SDS011;27696;42.704;23.304;2022-12-18T01:11:16;11.40;;;9.65;;
42006;SDS011;27696;42.704;23.304;2022-12-18T01:13:42;12.82;;;9.43;;
42006;SDS011;27696;42.704;23.304;2022-12-18T01:16:08;14.23;;;10.52;;
42006;SDS011;27696;42.704;23.304;2022-12-18T01:18:36;14.00;;;11.25;;
42006;SDS011;27696;42.704;23.304;2022-12-18T01:21:05;12.27;;;9.93;;
42006;SDS011;27696;42.704;23.304;2022-12-18T01:23:32;13.52;;;11.13;;
42006;SDS011;27696;42.704;23.304;2022-12-18T01:25:57;13.43;;;11.25;;
42006;SDS011;27696;42.704;23.304;2022-12-18T01:28:23;12.63;;;10.80;;
42006;SDS011;27696;42.704;23.304;2022-12-18T01:30:48;13.65;;;11.23;;
42006;SDS011;27696;42.704;23.304;2022-12-18T01:33:13;14.57;;;11.30;;
42006;SDS011;27696;42.704;23.304;2022-12-18T01:35:42;14.63;;;11.25;;
42006;SDS011;27696;42.704;23.304;2022-12-18T01:38:08;15.20;;;11.65;;
42006;SDS011;27696;42.704;23.304;2022-12-18T01:40:33;13.27;;;11.13;;
42006;SDS011;27696;42.704;23.304;2022-12-18T01:42:59;13.15;;;10.18;;
42006;SDS011;27696;42.704;23.304;2022-12-18T01:45:26;15.05;;;11.18;;
42006;SDS011;27696;42.704;23.304;2022-12-18T01:50:38;13.43;;;10.93;;
42006;SDS011;27696;42.704;23.304;2022-12-18T01:55:40;13.20;;;10.93;;
42006;SDS011;27696;42.704;23.304;2022-12-18T01:58:11;14.75;;;11.15;;
42006;SDS011;27696;42.704;23.304;2022-12-18T02:00:37;12.40;;;9.98;;
42006;SDS011;27696;42.704;23.304;2022-12-18T02:03:02;12.98;;;9.77;;
42006;SDS011;27696;42.704;23.304;2022-12-18T02:08:31;16.17;;;11.07;;
42006;SDS011;27696;42.704;23.304;2022-12-18T02:22:19;12.23;;;9.10;;
42006;SDS011;27696;42.704;23.304;2022-12-18T02:27:32;12.55;;;9.95;;
42006;SDS011;27696;42.704;23.304;2022-12-18T02:29:59;11.63;;;9.55;;
42006;SDS011;27696;42.704;23.304;2022-12-18T02:32:28;12.57;;;9.80;;
42006;SDS011;27696;42.704;23.304;2022-12-18T02:34:59;14.50;;;9.63;;
42006;SDS011;27696;42.704;23.304;2022-12-18T02:37:26;12.25;;;9.77;;
42006;SDS011;27696;42.704;23.304;2022-12-18T02:39:53;12.13;;;9.82;;
42006;SDS011;27696;42.704;23.304;2022-12-18T02:42:20;12.45;;;9.38;;
42006;SDS011;27696;42.704;23.304;2022-12-18T02:44:47;11.98;;;9.90;;
42006;SDS011;27696;42.704;23.304;2022-12-18T02:47:14;12.40;;;10.13;;
42006;SDS011;27696;42.704;23.304;2022-12-18T02:52:25;14.77;;;12.00;;
42006;SDS011;27696;42.704;23.304;2022-12-18T02:57:46;12.65;;;9.63;;
42006;SDS011;27696;42.704;23.304;2022-12-18T03:02:48;11.23;;;9.80;;
42006;SDS011;27696;42.704;23.304;2022-12-18T03:05:30;11.50;;;9.23;;
42006;SDS011;27696;42.704;23.304;2022-12-18T03:08:00;13.65;;;10.88;;
42006;SDS011;27696;42.704;23.304;2022-12-18T03:10:31;13.68;;;10.90;;
42006;SDS011;27696;42.704;23.304;2022-12-18T03:13:00;12.40;;;9.55;;
42006;SDS011;27696;42.704;23.304;2022-12-18T03:15:30;12.68;;;10.13;;
42006;SDS011;27696;42.704;23.304;2022-12-18T03:18:01;14.77;;;10.05;;
42006;SDS011;27696;42.704;23.304;2022-12-18T03:20:29;11.65;;;9.73;;
42006;SDS011;27696;42.704;23.304;2022-12-18T03:23:03;12.30;;;9.90;;
42006;SDS011;27696;42.704;23.304;2022-12-18T03:25:31;13.68;;;10.02;;
42006;SDS011;27696;42.704;23.304;2022-12-18T03:27:59;13.18;;;9.63;;
42006;SDS011;27696;42.704;23.304;2022-12-18T03:30:24;13.43;;;9.38;;
42006;SDS011;27696;42.704;23.304;2022-12-18T03:33:02;11.27;;;9.35;;
42006;SDS011;27696;42.704;23.304;2022-12-18T03:35:33;12.13;;;9.48;;
42006;SDS011;27696;42.704;23.304;2022-12-18T03:38:01;13.45;;;10.18;;
42006;SDS011;27696;42.704;23.304;2022-12-18T03:40:27;10.70;;;8.77;;
42006;SDS011;27696;42.704;23.304;2022-12-18T03:43:00;12.93;;;10.23;;
42006;SDS011;27696;42.704;23.304;2022-12-18T03:48:03;13.15;;;9.82;;
42006;SDS011;27696;42.704;23.304;2022-12-18T03:50:37;12.60;;;9.05;;
42006;SDS011;27696;42.704;23.304;2022-12-18T03:55:48;11.93;;;8.75;;
42006;SDS011;27696;42.704;23.304;2022-12-18T03:58:16;12.60;;;10.07;;
42006;SDS011;27696;42.704;23.304;2022-12-18T04:00:43;12.90;;;9.90;;
42006;SDS011;27696;42.704;23.304;2022-12-18T04:03:09;13.50;;;9.93;;
42006;SDS011;27696;42.704;23.304;2022-12-18T04:05:35;14.07;;;10.68;;
42006;SDS011;27696;42.704;23.304;2022-12-18T04:08:02;13.55;;;11.45;;
42006;SDS011;27696;42.704;23.304;2022-12-18T04:10:27;14.20;;;10.80;;
42006;SDS011;27696;42.704;23.304;2022-12-18T04:12:55;12.18;;;10.05;;
42006;SDS011;27696;42.704;23.304;2022-12-18T04:15:21;14.63;;;11.55;;
42006;SDS011;27696;42.704;23.304;2022-12-18T04:17:47;15.38;;;11.52;;
42006;SDS011;27696;42.704;23.304;2022-12-18T04:20:14;15.02;;;11.85;;
42006;SDS011;27696;42.704;23.304;2022-12-18T04:22:39;14.40;;;11.50;;
42006;SDS011;27696;42.704;23.304;2022-12-18T04:25:05;19.63;;;12.88;;
42006;SDS011;27696;42.704;23.304;2022-12-18T04:27:31;17.98;;;11.85;;
42006;SDS011;27696;42.704;23.304;2022-12-18T04:29:56;15.48;;;12.45;;
42006;SDS011;27696;42.704;23.304;2022-12-18T04:32:21;16.30;;;12.30;;
42006;SDS011;27696;42.704;23.304;2022-12-18T04:34:47;15.80;;;12.57;;
42006;SDS011;27696;42.704;23.304;2022-12-18T04:37:12;17.60;;;12.82;;
42006;SDS011;27696;42.704;23.304;2022-12-18T04:39:38;15.73;;;12.55;;
42006;SDS011;27696;42.704;23.304;2022-12-18T04:42:04;18.48;;;13.68;;
42006;SDS011;27696;42.704;23.304;2022-12-18T04:44:29;18.10;;;13.65;;
42006;SDS011;27696;42.704;23.304;2022-12-18T04:46:54;19.67;;;14.13;;
42006;SDS011;27696;42.704;23.304;2022-12-18T04:49:20;19.38;;;14.18;;
42006;SDS011;27696;42.704;23.304;2022-12-18T04:51:46;19.35;;;14.15;;
42006;SDS011;27696;42.704;23.304;2022-12-18T04:54:11;18.63;;;13.73;;
42006;SDS011;27696;42.704;23.304;2022-12-18T04:56:37;19.75;;;14.50;;
42006;SDS011;27696;42.704;23.304;2022-12-18T04:59:02;20.33;;;14.27;;
42006;SDS011;27696;42.704;23.304;2022-12-18T05:01:27;22.40;;;14.23;;
42006;SDS011;27696;42.704;23.304;2022-12-18T05:03:53;19.92;;;15.25;;
42006;SDS011;27696;42.704;23.304;2022-12-18T05:06:18;19.27;;;14.48;;
42006;SDS011;27696;42.704;23.304;2022-12-18T05:08:43;21.85;;;15.27;;
42006;SDS011;27696;42.704;23.304;2022-12-18T05:11:10;21.77;;;15.13;;
42006;SDS011;27696;42.704;23.304;2022-12-18T05:13:37;19.20;;;15.25;;
42006;SDS011;27696;42.704;23.304;2022-12-18T05:16:03;23.13;;;15.90;;
42006;SDS011;27696;42.704;23.304;2022-12-18T05:18:28;21.17;;;15.40;;
42006;SDS011;27696;42.704;23.304;2022-12-18T05:20:54;23.15;;;16.38;;
42006;SDS011;27696;42.704;23.304;2022-12-18T05:23:20;23.63;;;16.17;;
42006;SDS011;27696;42.704;23.304;2022-12-18T05:25:59;21.67;;;15.07;;
42006;SDS011;27696;42.704;23.304;2022-12-18T05:28:27;21.23;;;15.68;;
42006;SDS011;27696;42.704;23.304;2022-12-18T05:30:57;23.25;;;16.10;;
42006;SDS011;27696;42.704;23.304;2022-12-18T05:33:24;23.08;;;15.88;;
42006;SDS011;27696;42.704;23.304;2022-12-18T05:35:51;21.85;;;16.00;;
42006;SDS011;27696;42.704;23.304;2022-12-18T05:38:17;22.45;;;15.52;;
42006;SDS011;27696;42.704;23.304;2022-12-18T05:40:43;23.83;;;16.20;;
42006;SDS011;27696;42.704;23.304;2022-12-18T05:43:09;20.98;;;15.70;;
42006;SDS011;27696;42.704;23.304;2022-12-18T05:45:38;23.02;;;16.80;;
42006;SDS011;27696;42.704;23.304;2022-12-18T05:48:04;23.42;;;16.90;;
42006;SDS011;27696;42.704;23.304;2022-12-18T05:50:30;20.85;;;15.63;;
42006;SDS011;27696;42.704;23.304;2022-12-18T05:52:55;24.08;;;16.25;;
42006;SDS011;27696;42.704;23.304;2022-12-18T05:55:21;25.25;;;16.80;;
42006;SDS011;27696;42.704;23.304;2022-12-18T05:57:46;24.67;;;16.85;;
42006;SDS011;27696;42.704;23.304;2022-12-18T06:00:12;23.95;;;16.77;;
42006;SDS011;27696;42.704;23.304;2022-12-18T06:02:38;24.58;;;17.08;;
42006;SDS011;27696;42.704;23.304;2022-12-18T06:05:03;23.70;;;16.30;;
42006;SDS011;27696;42.704;23.304;2022-12-18T06:07:29;23.70;;;17.15;;
42006;SDS011;27696;42.704;23.304;2022-12-18T06:09:54;24.98;;;18.15;;
42006;SDS011;27696;42.704;23.304;2022-12-18T06:12:20;26.20;;;18.08;;
42006;SDS011;27696;42.704;23.304;2022-12-18T06:14:46;22.70;;;16.20;;
42006;SDS011;27696;42.704;23.304;2022-12-18T06:17:11;22.58;;;17.17;;
42006;SDS011;27696;42.704;23.304;2022-12-18T06:19:36;25.02;;;17.38;;
42006;SDS011;27696;42.704;23.304;2022-12-18T06:22:02;25.45;;;16.95;;
42006;SDS011;27696;42.704;23.304;2022-12-18T06:24:27;23.10;;;16.45;;
42006;SDS011;27696;42.704;23.304;2022-12-18T06:26:53;24.73;;;16.90;;
42006;SDS011;27696;42.704;23.304;2022-12-18T06:29:19;24.08;;;16.70;;
42006;SDS011;27696;42.704;23.304;2022-12-18T06:31:44;23.98;;;16.58;;
42006;SDS011;27696;42.704;23.304;2022-12-18T06:34:10;23.65;;;15.88;;
42006;SDS011;27696;42.704;23.304;2022-12-18T06:36:35;23.80;;;16.60;;
42006;SDS011;27696;42.704;23.304;2022-12-18T06:39:01;23.15;;;17.05;;
42006;SDS011;27696;42.704;23.304;2022-12-18T06:41:26;25.52;;;17.77;;
42006;SDS011;27696;42.704;23.304;2022-12-18T06:43:52;23.60;;;15.68;;
42006;SDS011;27696;42.704;23.304;2022-12-18T06:46:17;24.13;;;16.55;;
42006;SDS011;27696;42.704;23.304;2022-12-18T06:48:45;21.60;;;15.43;;
42006;SDS011;27696;42.704;23.304;2022-12-18T06:51:12;23.75;;;16.30;;
42006;SDS011;27696;42.704;23.304;2022-12-18T06:53:37;21.20;;;15.70;;
42006;SDS011;27696;42.704;23.304;2022-12-18T06:56:03;21.25;;;14.68;;
42006;SDS011;27696;42.704;23.304;2022-12-18T06:58:30;19.73;;;14.65;;
42006;SDS011;27696;42.704;23.304;2022-12-18T07:00:59;21.92;;;14.10;;
42006;SDS011;27696;42.704;23.304;2022-12-18T07:03:28;20.13;;;14.27;;
42006;SDS011;27696;42.704;23.304;2022-12-18T07:05:54;19.27;;;14.70;;
42006;SDS011;27696;42.704;23.304;2022-12-18T07:08:19;21.60;;;15.25;;
42006;SDS011;27696;42.704;23.304;2022-12-18T07:10:45;22.27;;;15.93;;
42006;SDS011;27696;42.704;23.304;2022-12-18T07:13:10;25.45;;;17.42;;
42006;SDS011;27696;42.704;23.304;2022-12-18T07:15:36;24.35;;;17.63;;
42006;SDS011;27696;42.704;23.304;2022-12-18T07:18:02;25.48;;;18.00;;
42006;SDS011;27696;42.704;23.304;2022-12-18T07:20:27;25.02;;;17.80;;
42006;SDS011;27696;42.704;23.304;2022-12-18T07:22:52;28.45;;;19.75;;
42006;SDS011;27696;42.704;23.304;2022-12-18T07:25:18;28.08;;;20.05;;
42006;SDS011;27696;42.704;23.304;2022-12-18T07:27:44;29.95;;;18.73;;
42006;SDS011;27696;42.704;23.304;2022-12-18T07:30:09;31.95;;;19.55;;
42006;SDS011;27696;42.704;23.304;2022-12-18T07:32:35;31.27;;;21.08;;
42006;SDS011;27696;42.704;23.304;2022-12-18T07:35:00;29.75;;;19.65;;
42006;SDS011;27696;42.704;23.304;2022-12-18T07:37:26;27.80;;;20.00;;
42006;SDS011;27696;42.704;23.304;2022-12-18T07:39:51;28.02;;;19.15;;
42006;SDS011;27696;42.704;23.304;2022-12-18T07:42:16;27.30;;;19.83;;
42006;SDS011;27696;42.704;23.304;2022-12-18T07:45:05;31.70;;;21.27;;
42006;SDS011;27696;42.704;23.304;2022-12-18T07:47:33;28.75;;;20.17;;
42006;SDS011;27696;42.704;23.304;2022-12-18T07:50:01;28.20;;;20.25;;
42006;SDS011;27696;42.704;23.304;2022-12-18T07:52:27;26.35;;;18.98;;
42006;SDS011;27696;42.704;23.304;2022-12-18T07:54:52;30.80;;;20.98;;
42006;SDS011;27696;42.704;23.304;2022-12-18T07:57:17;28.85;;;20.40;;
42006;SDS011;27696;42.704;23.304;2022-12-18T07:59:43;29.90;;;21.23;;
42006;SDS011;27696;42.704;23.304;2022-12-18T08:02:08;27.70;;;20.73;;
42006;SDS011;27696;42.704;23.304;2022-12-18T08:04:34;27.45;;;19.73;;
42006;SDS011;27696;42.704;23.304;2022-12-18T08:06:59;30.55;;;21.40;;
42006;SDS011;27696;42.704;23.304;2022-12-18T08:09:25;28.35;;;20.35;;
42006;SDS011;27696;42.704;23.304;2022-12-18T08:11:50;27.55;;;19.55;;
42006;SDS011;27696;42.704;23.304;2022-12-18T08:14:16;30.05;;;20.00;;
42006;SDS011;27696;42.704;23.304;2022-12-18T08:16:41;27.38;;;19.73;;
42006;SDS011;27696;42.704;23.304;2022-12-18T08:19:06;29.88;;;20.63;;
42006;SDS011;27696;42.704;23.304;2022-12-18T08:21:35;29.83;;;20.75;;
42006;SDS011;27696;42.704;23.304;2022-12-18T08:24:00;30.00;;;20.40;;
42006;SDS011;27696;42.704;23.304;2022-12-18T08:26:27;27.25;;;19.20;;
42006;SDS011;27696;42.704;23.304;2022-12-18T08:28:55;29.25;;;20.48;;
42006;SDS011;27696;42.704;23.304;2022-12-18T08:31:21;28.55;;;18.35;;
42006;SDS011;27696;42.704;23.304;2022-12-18T08:33:51;27.30;;;18.67;;
42006;SDS011;27696;42.704;23.304;2022-12-18T08:36:17;26.70;;;18.45;;
42006;SDS011;27696;42.704;23.304;2022-12-18T08:38:44;26.85;;;19.20;;
42006;SDS011;27696;42.704;23.304;2022-12-18T08:41:10;26.05;;;18.80;;
42006;SDS011;27696;42.704;23.304;2022-12-18T08:43:37;25.45;;;18.17;;
42006;SDS011;27696;42.704;23.304;2022-12-18T08:46:22;27.77;;;18.75;;
42006;SDS011;27696;42.704;23.304;2022-12-18T08:48:52;27.67;;;18.55;;
42006;SDS011;27696;42.704;23.304;2022-12-18T08:51:18;28.33;;;20.10;;
42006;SDS011;27696;42.704;23.304;2022-12-18T08:53:44;28.52;;;19.05;;
42006;SDS011;27696;42.704;23.304;2022-12-18T08:56:11;23.63;;;17.25;;
42006;SDS011;27696;42.704;23.304;2022-12-18T08:58:39;23.92;;;17.63;;
42006;SDS011;27696;42.704;23.304;2022-12-18T09:01:06;26.80;;;18.25;;
42006;SDS011;27696;42.704;23.304;2022-12-18T09:03:34;23.25;;;16.73;;
42006;SDS011;27696;42.704;23.304;2022-12-18T09:05:59;26.95;;;17.63;;
42006;SDS011;27696;42.704;23.304;2022-12-18T09:08:25;22.98;;;16.85;;
42006;SDS011;27696;42.704;23.304;2022-12-18T09:10:51;25.38;;;17.05;;
42006;SDS011;27696;42.704;23.304;2022-12-18T09:13:17;24.85;;;17.15;;
42006;SDS011;27696;42.704;23.304;2022-12-18T09:15:47;25.08;;;17.45;;
42006;SDS011;27696;42.704;23.304;2022-12-18T09:18:14;22.58;;;16.67;;
42006;SDS011;27696;42.704;23.304;2022-12-18T09:20:41;25.08;;;16.50;;
42006;SDS011;27696;42.704;23.304;2022-12-18T09:23:07;25.70;;;17.13;;
42006;SDS011;27696;42.704;23.304;2022-12-18T09:25:33;26.45;;;17.27;;
42006;SDS011;27696;42.704;23.304;2022-12-18T09:28:02;26.25;;;16.05;;
42006;SDS011;27696;42.704;23.304;2022-12-18T09:30:29;23.17;;;15.65;;
42006;SDS011;27696;42.704;23.304;2022-12-18T09:32:55;24.48;;;16.45;;
42006;SDS011;27696;42.704;23.304;2022-12-18T09:35:20;29.35;;;17.08;;
42006;SDS011;27696;42.704;23.304;2022-12-18T09:37:46;23.90;;;16.27;;
42006;SDS011;27696;42.704;23.304;2022-12-18T09:40:18;22.42;;;15.90;;
42006;SDS011;27696;42.704;23.304;2022-12-18T09:42:45;21.13;;;15.65;;
42006;SDS011;27696;42.704;23.304;2022-12-18T09:45:14;24.52;;;16.30;;
42006;SDS011;27696;42.704;23.304;2022-12-18T09:47:40;23.02;;;15.38;;
42006;SDS011;27696;42.704;23.304;2022-12-18T09:50:18;21.65;;;15.45;;
42006;SDS011;27696;42.704;23.304;2022-12-18T09:52:49;23.08;;;15.05;;
42006;SDS011;27696;42.704;23.304;2022-12-18T09:57:53;23.88;;;17.65;;
42006;SDS011;27696;42.704;23.304;2022-12-18T10:00:22;23.70;;;16.42;;
42006;SDS011;27696;42.704;23.304;2022-12-18T10:02:53;23.17;;;16.17;;
42006;SDS011;27696;42.704;23.304;2022-12-18T10:05:35;23.77;;;14.93;;
42006;SDS011;27696;42.704;23.304;2022-12-18T10:09:06;21.25;;;14.73;;
42006;SDS011;27696;42.704;23.304;2022-12-18T10:11:21;25.38;;;16.05;;
42006;SDS011;27696;42.704;23.304;2022-12-18T10:14:01;29.17;;;18.52;;
42006;SDS011;27696;42.704;23.304;2022-12-18T10:27:18;21.88;;;15.73;;
42006;SDS011;27696;42.704;23.304;2022-12-18T10:29:47;26.08;;;15.15;;
42006;SDS011;27696;42.704;23.304;2022-12-18T10:32:23;21.73;;;16.08;;
42006;SDS011;27696;42.704;23.304;2022-12-18T10:34:51;22.27;;;14.98;;
42006;SDS011;27696;42.704;23.304;2022-12-18T10:37:18;23.60;;;16.65;;
42006;SDS011;27696;42.704;23.304;2022-12-18T10:40:21;26.88;;;17.27;;
42006;SDS011;27696;42.704;23.304;2022-12-18T10:42:40;26.02;;;17.30;;
42006;SDS011;27696;42.704;23.304;2022-12-18T10:47:46;23.02;;;16.50;;
42006;SDS011;27696;42.704;23.304;2022-12-18T10:50:33;21.60;;;15.07;;
42006;SDS011;27696;42.704;23.304;2022-12-18T10:53:00;22.48;;;16.05;;
42006;SDS011;27696;42.704;23.304;2022-12-18T10:55:29;23.98;;;16.95;;
42006;SDS011;27696;42.704;23.304;2022-12-18T10:58:54;22.55;;;15.75;;
42006;SDS011;27696;42.704;23.304;2022-12-18T11:01:12;21.13;;;15.07;;
42006;SDS011;27696;42.704;23.304;2022-12-18T11:03:39;23.40;;;16.10;;
42006;SDS011;27696;42.704;23.304;2022-12-18T11:06:15;20.90;;;14.38;;
42006;SDS011;27696;42.704;23.304;2022-12-18T11:08:43;21.27;;;13.83;;
42006;SDS011;27696;42.704;23.304;2022-12-18T11:11:19;21.45;;;14.25;;
42006;SDS011;27696;42.704;23.304;2022-12-18T11:14:04;20.42;;;14.10;;
42006;SDS011;27696;42.704;23.304;2022-12-18T11:16:35;22.92;;;14.90;;
42006;SDS011;27696;42.704;23.304;2022-12-18T11:19:10;22.73;;;15.63;;
42006;SDS011;27696;42.704;23.304;2022-12-18T11:21:42;25.08;;;16.58;;
42006;SDS011;27696;42.704;23.304;2022-12-18T11:24:15;23.63;;;16.05;;
42006;SDS011;27696;42.704;23.304;2022-12-18T11:26:46;26.83;;;16.88;;
42006;SDS011;27696;42.704;23.304;2022-12-18T11:29:15;27.83;;;17.83;;
42006;SDS011;27696;42.704;23.304;2022-12-18T11:31:42;26.08;;;16.73;;
42006;SDS011;27696;42.704;23.304;2022-12-18T11:34:26;22.58;;;16.08;;
42006;SDS011;27696;42.704;23.304;2022-12-18T11:39:30;26.13;;;16.38;;
42006;SDS011;27696;42.704;23.304;2022-12-18T11:42:01;23.65;;;15.85;;
42006;SDS011;27696;42.704;23.304;2022-12-18T11:47:38;23.10;;;15.02;;
42006;SDS011;27696;42.704;23.304;2022-12-18T11:50:13;20.83;;;15.55;;
42006;SDS011;27696;42.704;23.304;2022-12-18T11:52:41;21.05;;;14.80;;
42006;SDS011;27696;42.704;23.304;2022-12-18T11:55:11;23.15;;;16.00;;
42006;SDS011;27696;42.704;23.304;2022-12-18T12:00:20;23.13;;;15.95;;
42006;SDS011;27696;42.704;23.304;2022-12-18T12:08:08;26.00;;;18.23;;
42006;SDS011;27696;42.704;23.304;2022-12-18T12:10:43;26.20;;;18.25;;
42006;SDS011;27696;42.704;23.304;2022-12-18T12:21:41;23.90;;;16.48;;
42006;SDS011;27696;42.704;23.304;2022-12-18T12:29:34;31.88;;;20.30;;
42006;SDS011;27696;42.704;23.304;2022-12-18T12:35:22;22.55;;;16.23;;
42006;SDS011;27696;42.704;23.304;2022-12-18T12:38:02;24.02;;;16.75;;
42006;SDS011;27696;42.704;23.304;2022-12-18T12:40:34;24.10;;;15.90;;
42006;SDS011;27696;42.704;23.304;2022-12-18T12:43:21;23.13;;;16.05;;
42006;SDS011;27696;42.704;23.304;2022-12-18T12:45:54;25.80;;;17.15;;
42006;SDS011;27696;42.704;23.304;2022-12-18T12:48:29;28.75;;;18.75;;
42006;SDS011;27696;42.704;23.304;2022-12-18T12:50:56;22.52;;;16.38;;
42006;SDS011;27696;42.704;23.304;2022-12-18T12:53:26;23.98;;;16.55;;
42006;SDS011;27696;42.704;23.304;2022-12-18T12:55:55;26.48;;;17.98;;
42006;SDS011;27696;42.704;23.304;2022-12-18T13:01:16;23.15;;;16.50;;
42006;SDS011;27696;42.704;23.304;2022-12-18T13:06:30;24.60;;;16.30;;
42006;SDS011;27696;42.704;23.304;2022-12-18T13:09:15;24.40;;;16.80;;
42006;SDS011;27696;42.704;23.304;2022-12-18T13:14:29;19.40;;;15.05;;
42006;SDS011;27696;42.704;23.304;2022-12-18T13:17:22;24.52;;;17.05;;
42006;SDS011;27696;42.704;23.304;2022-12-18T13:22:44;25.63;;;17.13;;
42006;SDS011;27696;42.704;23.304;2022-12-18T13:25:30;22.98;;;16.10;;
42006;SDS011;27696;42.704;23.304;2022-12-18T13:28:12;23.50;;;16.65;;
42006;SDS011;27696;42.704;23.304;2022-12-18T13:36:03;23.40;;;16.60;;
42006;SDS011;27696;42.704;23.304;2022-12-18T13:38:41;27.17;;;18.38;;
42006;SDS011;27696;42.704;23.304;2022-12-18T13:48:58;24.58;;;16.50;;
42006;SDS011;27696;42.704;23.304;2022-12-18T13:51:26;24.00;;;17.38;;
42006;SDS011;27696;42.704;23.304;2022-12-18T13:53:54;24.77;;;16.92;;
42006;SDS011;27696;42.704;23.304;2022-12-18T13:56:44;23.50;;;17.13;;
42006;SDS011;27696;42.704;23.304;2022-12-18T14:01:55;23.58;;;16.13;;
42006;SDS011;27696;42.704;23.304;2022-12-18T14:06:52;22.27;;;15.23;;
42006;SDS011;27696;42.704;23.304;2022-12-18T14:09:23;22.30;;;14.70;;
42006;SDS011;27696;42.704;23.304;2022-12-18T14:11:50;23.45;;;14.32;;
42006;SDS011;27696;42.704;23.304;2022-12-18T14:14:16;22.63;;;15.90;;
42006;SDS011;27696;42.704;23.304;2022-12-18T14:16:43;22.00;;;15.13;;
42006;SDS011;27696;42.704;23.304;2022-12-18T14:19:15;21.52;;;14.45;;
42006;SDS011;27696;42.704;23.304;2022-12-18T14:21:46;22.20;;;15.20;;
42006;SDS011;27696;42.704;23.304;2022-12-18T14:24:14;21.15;;;14.80;;
42006;SDS011;27696;42.704;23.304;2022-12-18T14:26:41;22.75;;;15.52;;
42006;SDS011;27696;42.704;23.304;2022-12-18T14:32:03;21.85;;;14.48;;
42006;SDS011;27696;42.704;23.304;2022-12-18T14:34:34;22.65;;;15.50;;
42006;SDS011;27696;42.704;23.304;2022-12-18T14:36:59;22.33;;;14.43;;
42006;SDS011;27696;42.704;23.304;2022-12-18T14:39:25;20.58;;;14.25;;
42006;SDS011;27696;42.704;23.304;2022-12-18T14:41:50;21.02;;;13.20;;
42006;SDS011;27696;42.704;23.304;2022-12-18T14:44:16;20.00;;;13.65;;
42006;SDS011;27696;42.704;23.304;2022-12-18T14:46:46;21.20;;;13.45;;
42006;SDS011;27696;42.704;23.304;2022-12-18T14:52:01;18.83;;;13.25;;
42006;SDS011;27696;42.704;23.304;2022-12-18T14:54:28;18.17;;;12.57;;
42006;SDS011;27696;42.704;23.304;2022-12-18T14:59:27;18.40;;;13.02;;
42006;SDS011;27696;42.704;23.304;2022-12-18T15:01:58;18.85;;;13.48;;
42006;SDS011;27696;42.704;23.304;2022-12-18T15:04:28;20.10;;;12.23;;
42006;SDS011;27696;42.704;23.304;2022-12-18T15:09:46;16.52;;;11.43;;
42006;SDS011;27696;42.704;23.304;2022-12-18T15:13:27;20.25;;;12.75;;
42006;SDS011;27696;42.704;23.304;2022-12-18T15:20:33;18.80;;;12.60;;
42006;SDS011;27696;42.704;23.304;2022-12-18T15:26:10;18.10;;;12.68;;
42006;SDS011;27696;42.704;23.304;2022-12-18T15:28:38;20.60;;;13.18;;
42006;SDS011;27696;42.704;23.304;2022-12-18T15:33:40;22.98;;;13.93;;
42006;SDS011;27696;42.704;23.304;2022-12-18T15:36:11;20.90;;;13.05;;
42006;SDS011;27696;42.704;23.304;2022-12-18T15:38:40;18.15;;;13.43;;
42006;SDS011;27696;42.704;23.304;2022-12-18T15:41:11;20.70;;;14.13;;
42006;SDS011;27696;42.704;23.304;2022-12-18T15:43:38;22.73;;;14.13;;
42006;SDS011;27696;42.704;23.304;2022-12-18T15:46:04;22.00;;;13.85;;
42006;SDS011;27696;42.704;23.304;2022-12-18T15:48:35;25.83;;;14.45;;
42006;SDS011;27696;42.704;23.304;2022-12-18T15:51:04;21.20;;;14.40;;
42006;SDS011;27696;42.704;23.304;2022-12-18T15:53:31;21.42;;;14.75;;
42006;SDS011;27696;42.704;23.304;2022-12-18T15:55:58;29.70;;;19.20;;
42006;SDS011;27696;42.704;23.304;2022-12-18T15:58:41;25.65;;;16.92;;
42006;SDS011;27696;42.704;23.304;2022-12-18T16:01:07;24.20;;;16.00;;
42006;SDS011;27696;42.704;23.304;2022-12-18T16:03:34;22.42;;;14.95;;
42006;SDS011;27696;42.704;23.304;2022-12-18T16:05:59;27.73;;;16.90;;
42006;SDS011;27696;42.704;23.304;2022-12-18T16:08:27;24.98;;;15.63;;
42006;SDS011;27696;42.704;23.304;2022-12-18T16:10:54;23.55;;;16.10;;
42006;SDS011;27696;42.704;23.304;2022-12-18T16:13:19;22.20;;;15.15;;
42006;SDS011;27696;42.704;23.304;2022-12-18T16:15:45;25.83;;;16.00;;
42006;SDS011;27696;42.704;23.304;2022-12-18T16:18:11;23.98;;;15.55;;
42006;SDS011;27696;42.704;23.304;2022-12-18T16:20:36;23.08;;;15.98;;
42006;SDS011;27696;42.704;23.304;2022-12-18T16:23:03;24.80;;;15.98;;
42006;SDS011;27696;42.704;23.304;2022-12-18T16:25:29;23.15;;;16.33;;
42006;SDS011;27696;42.704;23.304;2022-12-18T16:27:55;25.08;;;16.10;;
42006;SDS011;27696;42.704;23.304;2022-12-18T16:30:22;22.60;;;15.10;;
42006;SDS011;27696;42.704;23.304;2022-12-18T16:32:48;24.27;;;16.23;;
42006;SDS011;27696;42.704;23.304;2022-12-18T16:35:15;24.90;;;15.77;;